Time;durP1;ratioP1;P1;durP2;ratioP2;P2;SDS_P1;SDS_P2;PMS_P1;PMS_P2;Temp;Humidity;BMP_temperature;BMP_pressure;BME280_temperature;BME280_humidity;BME280_pressure;Samples;Min_cycle;Max_cycle;Signal;HPM_P1;HPM_P2
2022/12/04 00:01:54;;;;;;;113.40;47.97;;;4.70;99.90;;;;;;5052657;28;20420;-65
2022/12/04 00:04:19;;;;;;;115.60;49.25;;;4.70;99.90;;;;;;5050944;28;20062;-65
2022/12/04 00:06:45;;;;;;;114.40;49.28;;;4.70;99.90;;;;;;5052338;28;20494;-66
2022/12/04 00:09:11;;;;;;;111.13;47.17;;;4.70;99.90;;;;;;5052211;28;20035;-70
2022/12/04 00:11:37;;;;;;;123.82;49.88;;;4.80;99.90;;;;;;5051998;28;20103;-66
2022/12/04 00:14:03;;;;;;;110.63;47.92;;;4.80;99.90;;;;;;5052660;28;20081;-65
2022/12/04 00:16:29;;;;;;;116.90;49.85;;;4.80;99.90;;;;;;5052117;28;20029;-66
2022/12/04 00:18:56;;;;;;;111.72;50.53;;;4.80;99.90;;;;;;5052123;28;20025;-66
2022/12/04 00:21:23;;;;;;;108.50;47.78;;;4.80;99.90;;;;;;5051971;28;20075;-66
2022/12/04 00:23:49;;;;;;;111.32;50.50;;;4.80;99.90;;;;;;5052196;28;20033;-66
2022/12/04 00:26:19;;;;;;;116.40;49.55;;;4.80;99.90;;;;;;5051823;28;20017;-67
2022/12/04 00:28:46;;;;;;;126.13;52.63;;;4.80;99.90;;;;;;5052591;28;20029;-66
2022/12/04 00:31:14;;;;;;;118.32;50.90;;;4.80;99.90;;;;;;5051855;28;20466;-70
2022/12/04 00:33:40;;;;;;;122.85;52.55;;;4.80;99.90;;;;;;5052104;28;20033;-66
2022/12/04 00:36:11;;;;;;;130.57;53.35;;;4.80;99.90;;;;;;5051864;28;20053;-66
2022/12/04 00:38:37;;;;;;;;;;;4.80;99.90;;;;;;5052495;28;20063;-66
2022/12/04 00:41:03;;;;;;;123.70;52.67;;;4.80;99.90;;;;;;5052086;28;19944;-66
2022/12/04 00:43:30;;;;;;;119.18;52.92;;;4.80;99.90;;;;;;5051360;28;20079;-66
2022/12/04 00:45:56;;;;;;;128.38;53.03;;;4.80;99.90;;;;;;5052072;28;20029;-67
2022/12/04 00:48:22;;;;;;;117.45;52.42;;;4.80;99.90;;;;;;5051707;28;20081;-66
2022/12/04 00:50:48;;;;;;;127.10;52.70;;;4.80;99.90;;;;;;5051798;28;20025;-65
2022/12/04 00:53:13;;;;;;;122.38;53.70;;;4.80;99.90;;;;;;5051532;28;20033;-70
2022/12/04 00:55:43;;;;;;;129.35;53.47;;;4.80;99.90;;;;;;5051807;28;20021;-66
2022/12/04 00:58:09;;;;;;;131.73;54.40;;;4.80;99.90;;;;;;5051694;28;20060;-66
2022/12/04 01:00:36;;;;;;;123.90;51.47;;;4.80;99.90;;;;;;5051100;28;20462;-66
2022/12/04 01:03:03;;;;;;;121.68;51.97;;;4.80;99.90;;;;;;5051649;28;20442;-66
2022/12/04 01:05:28;;;;;;;114.97;52.42;;;4.80;99.90;;;;;;5051142;28;20115;-66
2022/12/04 01:07:54;;;;;;;120.88;49.83;;;4.80;99.90;;;;;;5051707;28;20363;-66
2022/12/04 01:10:20;;;;;;;132.60;52.25;;;4.90;99.90;;;;;;5051356;28;20025;-66
2022/12/04 01:12:48;;;;;;;115.63;49.13;;;4.90;99.90;;;;;;5051554;28;20489;-66
2022/12/04 01:15:14;;;;;;;116.72;48.85;;;4.90;99.90;;;;;;5051494;28;20025;-65
2022/12/04 01:17:40;;;;;;;130.68;50.28;;;4.90;99.90;;;;;;5055144;28;20027;-65
2022/12/04 01:20:06;;;;;;;122.18;51.28;;;4.90;99.90;;;;;;5055095;28;20028;-65
2022/12/04 01:22:32;;;;;;;126.88;50.13;;;4.90;99.90;;;;;;5054810;28;20100;-67
2022/12/04 01:24:57;;;;;;;116.97;48.60;;;4.90;99.90;;;;;;5054466;28;20120;-65
2022/12/04 01:27:23;;;;;;;109.32;48.10;;;4.90;99.90;;;;;;5055548;28;20029;-67
2022/12/04 01:29:49;;;;;;;120.47;48.38;;;4.90;99.90;;;;;;5056133;28;20456;-67
2022/12/04 01:32:14;;;;;;;110.28;47.97;;;4.90;99.90;;;;;;5056204;28;20029;-67
2022/12/04 01:34:40;;;;;;;113.05;45.38;;;4.90;99.90;;;;;;5055910;28;20032;-66
2022/12/04 01:37:07;;;;;;;111.95;47.25;;;4.90;99.90;;;;;;5055749;28;20052;-67
2022/12/04 01:39:35;;;;;;;99.00;46.13;;;4.90;99.90;;;;;;5054988;28;20029;-67
2022/12/04 01:42:01;;;;;;;110.55;44.92;;;4.90;99.90;;;;;;5056179;28;20025;-67
2022/12/04 01:44:29;;;;;;;108.13;45.40;;;4.90;99.90;;;;;;5055334;28;20402;-66
2022/12/04 01:46:57;;;;;;;108.10;44.80;;;4.90;99.90;;;;;;5055496;28;20033;-66
2022/12/04 01:49:40;;;;;;;100.32;43.83;;;4.90;99.90;;;;;;5055129;28;20029;-66
2022/12/04 01:52:26;;;;;;;106.80;43.60;;;4.90;99.90;;;;;;5055033;28;20044;-66
2022/12/04 01:54:58;;;;;;;100.45;40.47;;;4.90;99.90;;;;;;5053858;28;20053;-66
2022/12/04 01:57:27;;;;;;;93.50;41.28;;;4.90;99.90;;;;;;5053923;28;20036;-65
2022/12/04 02:00:10;;;;;;;95.95;41.25;;;5.00;99.90;;;;;;5054650;28;20025;-67
2022/12/04 02:02:38;;;;;;;103.47;42.63;;;5.00;99.90;;;;;;5054086;28;20033;-65
2022/12/04 02:05:07;;;;;;;104.80;42.55;;;5.00;99.90;;;;;;5054324;28;20033;-65
2022/12/04 02:07:34;;;;;;;96.85;40.85;;;5.00;99.90;;;;;;5054052;28;20029;-66
2022/12/04 02:10:05;;;;;;;100.38;41.22;;;5.00;99.90;;;;;;5054341;28;20025;-66
2022/12/04 02:12:52;;;;;;;103.28;42.15;;;5.00;99.90;;;;;;5054005;28;20057;-65
2022/12/04 02:15:24;;;;;;;106.10;43.80;;;4.90;99.90;;;;;;5054411;28;20378;-65
2022/12/04 02:18:03;;;;;;;109.10;44.63;;;5.00;99.90;;;;;;5053982;28;20025;-67
2022/12/04 02:20:46;;;;;;;107.57;45.88;;;5.00;99.90;;;;;;5053719;28;20060;-64
2022/12/04 02:23:21;;;;;;;118.32;48.05;;;5.00;99.90;;;;;;5054179;28;20048;-66
2022/12/04 02:26:37;;;;;;;113.18;47.67;;;5.00;99.90;;;;;;5053765;28;20029;-67
2022/12/04 02:29:14;;;;;;;116.50;49.47;;;5.00;99.90;;;;;;5053156;28;20359;-66
2022/12/04 02:31:54;;;;;;;124.38;50.72;;;5.00;99.90;;;;;;5053659;28;20357;-67
2022/12/04 02:34:40;;;;;;;102.88;47.50;;;5.00;99.90;;;;;;5054209;28;20025;-67
2022/12/04 02:37:29;;;;;;;114.25;50.15;;;5.00;99.90;;;;;;5053543;28;20401;-65
2022/12/04 02:40:03;;;;;;;112.05;48.35;;;5.00;99.90;;;;;;5054064;28;20021;-66
2022/12/04 02:42:44;;;;;;;109.80;47.45;;;4.90;99.90;;;;;;5053347;28;20088;-65
2022/12/04 02:45:25;;;;;;;103.38;50.05;;;5.00;99.90;;;;;;5053384;28;20047;-66
2022/12/04 02:47:52;;;;;;;105.70;49.28;;;5.00;99.90;;;;;;5053559;28;20499;-66
2022/12/04 02:50:21;;;;;;;104.18;48.30;;;5.00;99.90;;;;;;5053737;28;20025;-66
2022/12/04 02:53:06;;;;;;;105.32;49.88;;;5.00;99.90;;;;;;5053375;28;20389;-66
2022/12/04 02:55:40;;;;;;;99.57;48.42;;;5.00;99.90;;;;;;5053487;28;20458;-67
2022/12/04 02:58:14;;;;;;;96.97;47.45;;;5.00;99.90;;;;;;5053702;28;20037;-67
2022/12/04 03:00:42;;;;;;;93.88;47.65;;;5.00;99.90;;;;;;5051698;28;20358;-67
2022/12/04 03:03:15;;;;;;;97.40;47.58;;;4.90;99.90;;;;;;5053471;28;20074;-67
2022/12/04 03:05:48;;;;;;;99.57;48.53;;;5.00;99.90;;;;;;5052945;28;20456;-67
2022/12/04 03:08:19;;;;;;;103.68;48.65;;;4.90;99.90;;;;;;5053294;28;20098;-67
2022/12/04 03:10:52;;;;;;;100.43;47.42;;;4.90;99.90;;;;;;5053043;28;20068;-67
2022/12/04 03:13:25;;;;;;;97.70;48.03;;;4.90;99.90;;;;;;5053282;28;20051;-67
2022/12/04 03:16:05;;;;;;;92.95;47.13;;;4.90;99.90;;;;;;5052906;28;20024;-67
2022/12/04 03:18:38;;;;;;;89.53;45.30;;;5.00;99.90;;;;;;5052665;28;20036;-65
2022/12/04 03:21:09;;;;;;;99.15;46.92;;;5.00;99.90;;;;;;5052922;28;20029;-66
2022/12/04 03:23:47;;;;;;;91.97;45.17;;;5.00;99.90;;;;;;5052479;28;20552;-67
2022/12/04 03:26:29;;;;;;;85.88;44.13;;;5.00;99.90;;;;;;5053122;28;20029;-67
2022/12/04 03:29:06;;;;;;;90.32;45.92;;;5.00;99.90;;;;;;5052775;28;20024;-66
2022/12/04 03:31:46;;;;;;;87.18;44.28;;;5.00;99.90;;;;;;5052117;28;20524;-67
2022/12/04 03:34:18;;;;;;;84.45;43.28;;;5.00;99.90;;;;;;5052842;28;20035;-66
2022/12/04 03:36:57;;;;;;;85.53;44.90;;;5.00;99.90;;;;;;5052370;28;20049;-67
2022/12/04 03:39:58;;;;;;;83.15;43.38;;;5.00;99.90;;;;;;5053064;28;20033;-66
2022/12/04 03:42:46;;;;;;;80.85;42.38;;;5.10;99.90;;;;;;5047388;28;20037;-65
2022/12/04 03:45:22;;;;;;;82.28;44.47;;;5.00;99.90;;;;;;5052602;28;20037;-65
2022/12/04 03:47:57;;;;;;;84.35;44.05;;;5.10;99.90;;;;;;5052069;28;20025;-64
2022/12/04 03:50:48;;;;;;;86.03;44.13;;;5.10;99.90;;;;;;5052575;28;20021;-66
2022/12/04 03:53:19;;;;;;;76.55;42.95;;;5.00;99.90;;;;;;5052617;28;20064;-66
2022/12/04 03:55:55;;;;;;;81.15;42.90;;;5.00;99.90;;;;;;5052276;28;20040;-66
2022/12/04 03:58:29;;;;;;;77.95;41.63;;;5.10;99.90;;;;;;5052531;28;20060;-65
2022/12/04 04:00:57;;;;;;;83.05;44.10;;;5.10;99.90;;;;;;5051543;28;20413;-66
2022/12/04 04:03:28;;;;;;;82.10;44.20;;;5.10;99.90;;;;;;5052162;28;20028;-65
2022/12/04 04:06:15;;;;;;;82.97;44.17;;;5.10;99.90;;;;;;5052522;28;20029;-66
2022/12/04 04:08:44;;;;;;;86.80;45.80;;;5.00;99.90;;;;;;5052009;28;20017;-66
2022/12/04 04:11:18;;;;;;;81.90;47.00;;;5.10;99.90;;;;;;5051994;28;20028;-66
2022/12/04 04:25:16;;;;;;;89.72;50.08;;;5.00;99.90;;;;;;5052040;28;20485;-66
2022/12/04 04:27:49;;;;;;;;;;;5.00;99.90;;;;;;5052073;28;20085;-66
2022/12/04 04:30:15;;;;;;;90.32;48.75;;;5.00;99.90;;;;;;5052554;28;19959;-66
2022/12/04 04:33:10;;;;;;;92.60;50.58;;;5.00;99.90;;;;;;5051712;28;20037;-66
2022/12/04 04:35:38;;;;;;;90.47;47.63;;;5.00;99.90;;;;;;5051339;28;20146;-66
2022/12/04 04:38:24;;;;;;;94.45;52.25;;;5.00;99.90;;;;;;5051816;28;20032;-66
2022/12/04 04:41:12;;;;;;;87.80;50.38;;;4.90;99.90;;;;;;5051729;28;20029;-66
2022/12/04 04:43:48;;;;;;;93.85;50.90;;;4.90;99.90;;;;;;5051582;28;20037;-66
2022/12/04 04:46:24;;;;;;;86.57;50.38;;;4.90;99.90;;;;;;5051933;28;20079;-66
2022/12/04 04:48:59;;;;;;;87.82;50.53;;;4.90;99.90;;;;;;5051719;28;20462;-65
2022/12/04 04:51:26;;;;;;;87.35;49.63;;;4.90;99.90;;;;;;5053790;28;20074;-65
2022/12/04 04:53:56;;;;;;;93.25;52.30;;;4.90;99.90;;;;;;5055482;28;20112;-65
2022/12/04 04:56:22;;;;;;;93.63;50.88;;;4.90;99.90;;;;;;5055937;28;20028;-66
2022/12/04 04:58:48;;;;;;;86.68;50.30;;;4.90;99.90;;;;;;5055387;28;20040;-66
2022/12/04 05:01:17;;;;;;;91.97;50.65;;;4.90;99.90;;;;;;5055345;28;20382;-66
2022/12/04 05:03:43;;;;;;;84.20;49.38;;;4.80;99.90;;;;;;5055206;28;20033;-66
2022/12/04 05:06:09;;;;;;;88.05;49.50;;;4.80;99.90;;;;;;5055443;28;20155;-66
2022/12/04 05:08:35;;;;;;;83.72;48.03;;;4.80;99.90;;;;;;5055235;28;20033;-67
2022/12/04 05:11:01;;;;;;;85.20;48.40;;;4.90;99.90;;;;;;5055591;28;20440;-66
2022/12/04 05:13:28;;;;;;;79.65;48.28;;;4.90;99.90;;;;;;5055588;28;20025;-65
2022/12/04 05:16:00;;;;;;;82.85;49.80;;;4.90;99.90;;;;;;5053950;28;20079;-66
2022/12/04 05:18:25;;;;;;;;;;;4.90;99.90;;;;;;5055915;28;20021;-66
2022/12/04 05:20:51;;;;;;;88.75;48.08;;;4.90;99.90;;;;;;5054825;28;19931;-66
2022/12/04 05:23:17;;;;;;;76.40;45.75;;;4.80;99.90;;;;;;5055404;28;20100;-65
2022/12/04 05:25:42;;;;;;;84.20;49.85;;;4.80;99.90;;;;;;5054866;28;20486;-66
2022/12/04 05:28:08;;;;;;;87.20;48.30;;;4.80;99.90;;;;;;5054847;28;20031;-65
2022/12/04 05:30:34;;;;;;;85.65;48.10;;;4.80;99.90;;;;;;5054769;28;20025;-70
2022/12/04 05:32:59;;;;;;;87.82;49.13;;;4.80;99.90;;;;;;5054837;28;20025;-66
2022/12/04 05:35:25;;;;;;;88.53;49.65;;;4.80;99.90;;;;;;5055325;28;20105;-66
2022/12/04 05:37:51;;;;;;;96.93;49.90;;;4.80;99.90;;;;;;5055119;28;20090;-66
2022/12/04 05:40:16;;;;;;;92.00;49.67;;;4.80;99.90;;;;;;5054986;28;20057;-66
2022/12/04 05:42:42;;;;;;;83.93;48.13;;;4.80;99.90;;;;;;5054188;28;20032;-66
2022/12/04 05:45:08;;;;;;;89.70;48.67;;;4.80;99.90;;;;;;5054787;28;20078;-66
2022/12/04 05:47:41;;;;;;;91.00;50.58;;;4.80;99.90;;;;;;5055280;28;20025;-66
2022/12/04 05:50:10;;;;;;;97.07;49.00;;;4.80;99.90;;;;;;5054642;28;20021;-66
2022/12/04 05:52:35;;;;;;;88.07;47.13;;;4.80;99.90;;;;;;5054545;28;20517;-70
2022/12/04 05:55:01;;;;;;;93.75;48.80;;;4.80;99.90;;;;;;5054568;28;20127;-66
2022/12/04 05:57:26;;;;;;;88.68;48.58;;;4.80;99.90;;;;;;5053459;28;20028;-66
2022/12/04 05:59:53;;;;;;;88.47;51.10;;;4.80;99.90;;;;;;5054413;28;20047;-66
2022/12/04 06:02:18;;;;;;;89.03;49.45;;;4.80;99.90;;;;;;5053221;28;20124;-65
2022/12/04 06:04:45;;;;;;;88.45;49.13;;;4.70;99.90;;;;;;5053962;28;20029;-65
2022/12/04 06:07:11;;;;;;;94.10;50.45;;;4.70;99.90;;;;;;5054381;28;20036;-65
2022/12/04 06:09:37;;;;;;;92.88;49.55;;;4.70;99.90;;;;;;5054162;28;20025;-67
2022/12/04 06:12:04;;;;;;;97.25;49.85;;;4.70;99.90;;;;;;5054575;28;20048;-66
2022/12/04 06:14:29;;;;;;;92.88;49.03;;;4.70;99.90;;;;;;5054437;28;20056;-66
2022/12/04 06:16:55;;;;;;;96.80;49.30;;;4.60;99.90;;;;;;5054193;28;20084;-66
2022/12/04 06:19:22;;;;;;;103.20;51.50;;;4.60;99.90;;;;;;5054206;28;20017;-65
2022/12/04 06:21:50;;;;;;;94.60;50.50;;;4.60;99.90;;;;;;5053675;28;20037;-66
2022/12/04 06:24:18;;;;;;;99.10;50.78;;;4.60;99.90;;;;;;5053977;28;20120;-65
2022/12/04 06:26:44;;;;;;;95.05;48.30;;;4.60;99.90;;;;;;5053232;28;20024;-66
2022/12/04 06:29:11;;;;;;;99.97;49.22;;;4.60;99.90;;;;;;5054209;28;20108;-66
2022/12/04 06:31:37;;;;;;;109.18;52.28;;;4.60;99.90;;;;;;5054107;28;20029;-66
2022/12/04 06:34:04;;;;;;;97.80;47.33;;;4.60;99.90;;;;;;5052227;28;20500;-67
2022/12/04 06:36:29;;;;;;;98.40;48.10;;;4.60;99.90;;;;;;5053752;28;20064;-67
2022/12/04 06:38:56;;;;;;;103.30;49.55;;;4.50;99.90;;;;;;5053634;28;20021;-66
2022/12/04 06:41:23;;;;;;;101.35;49.88;;;4.50;99.90;;;;;;5053607;28;20496;-66
2022/12/04 06:43:50;;;;;;;105.85;49.85;;;4.50;99.90;;;;;;5053489;28;20032;-65
2022/12/04 06:46:22;;;;;;;95.97;48.60;;;4.50;99.90;;;;;;5052401;28;20037;-65
2022/12/04 06:48:48;;;;;;;96.35;49.25;;;4.50;99.90;;;;;;5052740;28;20526;-65
2022/12/04 06:51:28;;;;;;;107.90;51.33;;;4.50;99.90;;;;;;5053761;28;20378;-65
2022/12/04 06:53:54;;;;;;;110.45;49.30;;;4.40;99.90;;;;;;5053429;28;20492;-66
2022/12/04 06:56:23;;;;;;;103.25;51.28;;;4.40;99.90;;;;;;5053696;28;20025;-65
2022/12/04 06:58:52;;;;;;;110.20;50.70;;;4.40;99.90;;;;;;5053062;28;20414;-66
2022/12/04 07:01:20;;;;;;;106.60;50.53;;;4.40;99.90;;;;;;5053621;28;20025;-66
2022/12/04 07:03:47;;;;;;;97.63;49.42;;;4.40;99.90;;;;;;5052850;28;20510;-66
2022/12/04 07:06:27;;;;;;;104.35;50.53;;;4.40;99.90;;;;;;5053584;28;20029;-66
2022/12/04 07:08:58;;;;;;;110.75;51.97;;;4.40;99.90;;;;;;5053124;28;20118;-65
2022/12/04 07:11:24;;;;;;;117.05;49.72;;;4.30;99.90;;;;;;5053013;28;20021;-66
2022/12/04 07:13:50;;;;;;;101.68;49.70;;;4.30;99.90;;;;;;5052444;28;20377;-65
2022/12/04 07:16:19;;;;;;;105.22;50.50;;;4.30;99.90;;;;;;5053317;28;20037;-65
2022/12/04 07:18:44;;;;;;;103.35;48.55;;;4.30;99.90;;;;;;5052522;28;20075;-65
2022/12/04 07:21:14;;;;;;;107.70;50.08;;;4.30;99.90;;;;;;5053307;28;20025;-65
2022/12/04 07:23:40;;;;;;;109.82;47.70;;;4.30;99.90;;;;;;5053006;28;20112;-65
2022/12/04 07:26:07;;;;;;;107.13;47.40;;;4.30;99.90;;;;;;5052479;28;20116;-67
2022/12/04 07:28:33;;;;;;;94.55;45.67;;;4.30;99.90;;;;;;5052686;28;20409;-67
2022/12/04 07:31:04;;;;;;;109.40;48.65;;;4.30;99.90;;;;;;5052682;28;20025;-67
2022/12/04 07:33:29;;;;;;;102.83;48.67;;;4.30;99.90;;;;;;5052979;28;20025;-67
2022/12/04 07:35:59;;;;;;;97.40;45.38;;;4.30;99.90;;;;;;5051813;28;20776;-67
2022/12/04 07:38:25;;;;;;;103.47;47.95;;;4.20;99.90;;;;;;5052938;28;20469;-67
2022/12/04 07:40:54;;;;;;;101.82;47.50;;;4.20;99.90;;;;;;5051232;28;20325;-67
2022/12/04 07:43:19;;;;;;;103.78;46.88;;;4.20;99.90;;;;;;5051565;28;20378;-67
2022/12/04 07:45:45;;;;;;;99.93;46.67;;;4.20;99.90;;;;;;5052056;28;20040;-70
2022/12/04 07:48:10;;;;;;;101.65;47.90;;;4.20;99.90;;;;;;5051400;28;20057;-66
2022/12/04 07:50:36;;;;;;;103.15;46.75;;;4.30;99.90;;;;;;5052560;28;20025;-66
2022/12/04 07:53:02;;;;;;;100.13;45.03;;;4.20;99.90;;;;;;5051454;28;20406;-65
2022/12/04 07:55:27;;;;;;;94.88;45.28;;;4.20;99.90;;;;;;5052670;28;20068;-66
2022/12/04 07:57:53;;;;;;;100.22;45.65;;;4.20;99.90;;;;;;5051999;28;20223;-66
2022/12/04 08:00:19;;;;;;;100.82;42.53;;;4.20;99.90;;;;;;5052319;28;20143;-66
2022/12/04 08:02:44;;;;;;;104.18;41.10;;;4.10;99.90;;;;;;5052285;28;20079;-70
2022/12/04 08:05:10;;;;;;;98.68;42.72;;;4.10;99.90;;;;;;5052316;28;20032;-66
2022/12/04 08:07:36;;;;;;;102.00;42.28;;;4.10;99.90;;;;;;5051016;28;20025;-67
2022/12/04 08:10:01;;;;;;;89.53;41.75;;;4.10;99.90;;;;;;5051853;28;20056;-66
2022/12/04 08:12:27;;;;;;;108.13;43.95;;;4.00;99.90;;;;;;5051024;28;20079;-66
2022/12/04 08:14:52;;;;;;;100.65;41.95;;;4.00;99.90;;;;;;5050675;28;20127;-65
2022/12/04 08:17:18;;;;;;;108.78;43.90;;;4.00;99.90;;;;;;5051308;28;20091;-67
2022/12/04 08:19:44;;;;;;;111.88;45.70;;;4.00;99.90;;;;;;5052350;28;20060;-66
2022/12/04 08:22:09;;;;;;;88.35;40.90;;;4.00;99.90;;;;;;5052215;28;20055;-65
2022/12/04 08:24:35;;;;;;;102.57;44.55;;;4.00;99.90;;;;;;5052253;28;20220;-65
2022/12/04 08:27:01;;;;;;;110.30;44.20;;;4.00;99.90;;;;;;5053717;28;20465;-66
2022/12/04 08:29:26;;;;;;;105.07;42.10;;;4.00;99.90;;;;;;5056445;28;20021;-65
2022/12/04 08:31:52;;;;;;;99.20;41.03;;;4.00;99.90;;;;;;5055542;28;20071;-65
2022/12/04 08:34:17;;;;;;;111.03;42.60;;;4.00;99.90;;;;;;5056596;28;20058;-66
2022/12/04 08:36:43;;;;;;;114.25;42.45;;;4.00;99.90;;;;;;5056495;28;20466;-65
2022/12/04 08:39:11;;;;;;;116.35;40.88;;;4.00;99.90;;;;;;5055569;28;20076;-67
2022/12/04 08:41:37;;;;;;;117.10;42.88;;;4.00;99.90;;;;;;5056174;28;20105;-66
2022/12/04 08:44:03;;;;;;;109.57;42.85;;;4.00;99.90;;;;;;5054030;28;20029;-67
2022/12/04 08:46:29;;;;;;;111.90;43.58;;;4.00;99.90;;;;;;5056085;28;20112;-66
2022/12/04 08:48:55;;;;;;;111.88;42.05;;;4.00;99.90;;;;;;5055720;28;20025;-67
2022/12/04 08:51:29;;;;;;;112.90;42.95;;;4.00;99.90;;;;;;5055990;28;20024;-66
2022/12/04 08:54:00;;;;;;;102.93;40.83;;;4.00;99.90;;;;;;5055465;28;20466;-66
2022/12/04 08:56:28;;;;;;;106.80;43.20;;;4.00;99.90;;;;;;5056220;28;20350;-66
2022/12/04 08:58:55;;;;;;;110.07;42.35;;;4.00;99.90;;;;;;5055210;28;20029;-66
2022/12/04 09:01:22;;;;;;;107.60;42.35;;;4.00;99.90;;;;;;5055841;28;20041;-65
2022/12/04 09:03:48;;;;;;;97.32;41.28;;;4.00;99.90;;;;;;5055745;28;20036;-65
2022/12/04 09:06:15;;;;;;;109.43;42.42;;;4.00;99.90;;;;;;5055582;28;20082;-65
2022/12/04 09:08:42;;;;;;;103.53;41.78;;;3.90;99.90;;;;;;5056044;28;20099;-65
2022/12/04 09:11:19;;;;;;;96.40;40.30;;;3.90;99.90;;;;;;5055120;28;20025;-66
2022/12/04 09:13:46;;;;;;;104.93;40.95;;;3.90;99.90;;;;;;5055556;28;20029;-65
2022/12/04 09:16:18;;;;;;;98.95;41.75;;;3.90;99.90;;;;;;5055276;28;20485;-66
2022/12/04 09:18:45;;;;;;;100.57;40.45;;;3.90;99.90;;;;;;5054479;28;20021;-66
2022/12/04 09:21:13;;;;;;;104.65;42.92;;;3.90;99.90;;;;;;5055158;28;20426;-66
2022/12/04 09:23:40;;;;;;;104.25;43.20;;;3.90;99.90;;;;;;5055043;28;20440;-66
2022/12/04 09:26:17;;;;;;;117.28;41.92;;;3.90;99.90;;;;;;5053533;28;20056;-66
2022/12/04 09:28:44;;;;;;;100.32;40.28;;;3.90;99.90;;;;;;5055222;28;20025;-66
2022/12/04 09:31:11;;;;;;;111.28;43.33;;;3.80;99.90;;;;;;5053607;28;20380;-66
2022/12/04 09:33:36;;;;;;;111.68;42.30;;;3.80;99.90;;;;;;5055273;28;20033;-66
2022/12/04 09:36:06;;;;;;;104.18;44.08;;;3.80;99.90;;;;;;5054447;28;20334;-66
2022/12/04 09:38:32;;;;;;;113.47;46.10;;;3.80;99.90;;;;;;5054868;28;20060;-66
2022/12/04 09:41:18;;;;;;;104.18;42.22;;;3.80;99.90;;;;;;5054516;28;20381;-66
2022/12/04 09:44:22;;;;;;;104.28;43.05;;;3.80;99.90;;;;;;5055095;28;20028;-67
2022/12/04 09:47:13;;;;;;;94.15;41.38;;;3.90;99.90;;;;;;5044051;28;20032;-66
2022/12/04 09:49:48;;;;;;;;;;;3.80;99.90;;;;;;5052022;28;20072;-66
2022/12/04 09:52:43;;;;;;;108.13;42.58;;;3.80;99.90;;;;;;5054345;28;20276;-65
2022/12/04 09:55:21;;;;;;;99.43;43.38;;;3.80;99.90;;;;;;5048799;28;20049;-66
2022/12/04 09:57:50;;;;;;;105.30;43.63;;;3.80;99.90;;;;;;5054319;28;20017;-66
2022/12/04 10:00:18;;;;;;;103.15;43.10;;;3.80;99.90;;;;;;5033361;28;20501;-66
2022/12/04 10:02:54;;;;;;;108.15;44.47;;;3.80;99.90;;;;;;5034844;28;20083;-66
2022/12/04 10:05:39;;;;;;;93.75;43.35;;;3.90;99.90;;;;;;5034993;28;20037;-66
2022/12/04 10:08:14;;;;;;;104.95;44.58;;;3.80;99.90;;;;;;5034226;28;20029;-66
2022/12/04 10:10:58;;;;;;;100.88;42.58;;;3.90;99.90;;;;;;5033513;28;20025;-66
2022/12/04 10:13:46;;;;;;;97.53;44.45;;;3.90;99.90;;;;;;5034956;28;20025;-66
2022/12/04 10:16:30;;;;;;;101.78;45.60;;;3.90;99.90;;;;;;5034144;28;20096;-67
2022/12/04 10:19:33;;;;;;;99.78;45.55;;;3.90;99.90;;;;;;5034169;28;20021;-66
2022/12/04 10:22:18;;;;;;;99.47;44.72;;;3.90;99.90;;;;;;5033927;28;20033;-66
2022/12/04 10:25:15;;;;;;;85.57;42.08;;;3.90;99.90;;;;;;5034404;28;20037;-66
2022/12/04 10:28:06;;;;;;;84.15;39.72;;;3.90;99.90;;;;;;5033623;28;20037;-66
2022/12/04 10:30:36;;;;;;;78.38;38.65;;;3.90;99.90;;;;;;5034464;28;20033;-66
2022/12/04 10:33:32;;;;;;;82.07;39.33;;;3.80;99.90;;;;;;5033689;28;20104;-67
2022/12/04 10:35:58;;;;;;;78.50;38.33;;;3.90;99.90;;;;;;5033829;28;20042;-66
2022/12/04 10:38:35;;;;;;;71.80;35.17;;;3.80;99.90;;;;;;5033649;28;20104;-65
2022/12/04 10:41:19;;;;;;;66.03;35.08;;;3.80;99.90;;;;;;5033498;28;20478;-67
2022/12/04 10:43:49;;;;;;;61.60;32.17;;;3.90;99.90;;;;;;5034141;28;20104;-65
2022/12/04 10:46:21;;;;;;;62.08;32.15;;;3.90;99.90;;;;;;5033184;28;20021;-66
2022/12/04 10:48:51;;;;;;;58.78;30.85;;;3.90;99.90;;;;;;5032896;28;20030;-66
2022/12/04 10:51:20;;;;;;;64.40;32.42;;;3.90;99.90;;;;;;5033566;28;20668;-66
2022/12/04 10:53:48;;;;;;;57.90;30.20;;;3.90;99.90;;;;;;5034025;28;20022;-66
2022/12/04 10:56:21;;;;;;;57.17;30.20;;;3.90;99.90;;;;;;5033312;28;20036;-66
2022/12/04 10:59:02;;;;;;;54.33;30.35;;;3.90;99.90;;;;;;5033644;28;20037;-66
2022/12/04 11:01:30;;;;;;;51.58;28.85;;;3.90;99.90;;;;;;5033734;28;20026;-66
2022/12/04 11:04:08;;;;;;;51.38;28.67;;;3.90;99.90;;;;;;5033593;28;20397;-66
2022/12/04 11:06:34;;;;;;;51.03;28.75;;;4.00;99.90;;;;;;5033710;28;20116;-66
2022/12/04 11:09:02;;;;;;;55.15;30.17;;;4.00;99.90;;;;;;5033001;28;20490;-69
2022/12/04 11:11:32;;;;;;;56.22;28.67;;;3.90;99.90;;;;;;5032188;28;20045;-65
2022/12/04 11:14:13;;;;;;;48.40;28.23;;;3.90;99.90;;;;;;5033258;28;20394;-69
2022/12/04 11:16:43;;;;;;;54.22;29.75;;;4.00;99.90;;;;;;5034071;28;20163;-66
2022/12/04 11:19:25;;;;;;;53.47;29.95;;;3.90;99.90;;;;;;5052130;28;20037;-65
2022/12/04 11:21:57;;;;;;;51.83;27.67;;;3.90;99.90;;;;;;5053349;28;20039;-65
2022/12/04 11:24:33;;;;;;;45.85;26.98;;;3.90;99.90;;;;;;5051351;28;20462;-66
2022/12/04 11:27:01;;;;;;;44.92;26.45;;;3.90;99.90;;;;;;5053078;28;20029;-66
2022/12/04 11:29:41;;;;;;;43.85;24.33;;;3.90;99.90;;;;;;5052804;28;20040;-66
2022/12/04 11:32:16;;;;;;;38.92;23.85;;;3.90;99.90;;;;;;5052769;28;20025;-65
2022/12/04 11:34:44;;;;;;;43.95;24.17;;;3.90;99.90;;;;;;5053275;28;20036;-65
2022/12/04 11:37:37;;;;;;;38.25;21.15;;;3.90;99.90;;;;;;5053743;28;20041;-66
2022/12/04 11:40:05;;;;;;;36.97;21.98;;;3.90;99.90;;;;;;5053165;28;20037;-69
2022/12/04 11:42:32;;;;;;;42.10;22.52;;;3.90;99.90;;;;;;5053814;28;20110;-66
2022/12/04 11:44:59;;;;;;;38.92;21.27;;;3.90;99.90;;;;;;5053348;28;20107;-67
2022/12/04 11:47:30;;;;;;;37.00;21.92;;;3.90;99.90;;;;;;5052599;28;20057;-67
2022/12/04 11:50:20;;;;;;;40.03;22.42;;;3.90;99.90;;;;;;5052580;28;20513;-66
2022/12/04 11:53:01;;;;;;;36.55;21.27;;;3.90;99.90;;;;;;5051076;28;20087;-66
2022/12/04 11:55:42;;;;;;;40.75;22.42;;;3.90;99.90;;;;;;5052934;28;20134;-66
2022/12/04 11:58:14;;;;;;;38.38;22.27;;;3.90;99.90;;;;;;5052504;28;20070;-66
2022/12/04 12:01:19;;;;;;;35.60;21.08;;;3.90;99.90;;;;;;5052756;28;20465;-66
2022/12/04 12:04:01;;;;;;;40.55;23.58;;;3.90;99.90;;;;;;5052629;28;20025;-66
2022/12/04 12:06:30;;;;;;;41.15;22.90;;;3.90;99.90;;;;;;5052144;28;20025;-66
2022/12/04 12:09:46;;;;;;;41.17;24.00;;;3.90;99.90;;;;;;5052672;28;20025;-66
2022/12/04 12:12:19;;;;;;;36.20;22.38;;;3.90;99.90;;;;;;5028804;28;20582;-66
2022/12/04 12:15:17;;;;;;;40.00;23.70;;;3.90;99.90;;;;;;5052742;28;20107;-65
2022/12/04 12:17:58;;;;;;;42.42;24.83;;;3.90;99.90;;;;;;5052366;28;20029;-66
2022/12/04 12:20:34;;;;;;;40.03;23.52;;;4.00;99.90;;;;;;5052171;28;20040;-66
2022/12/04 12:23:14;;;;;;;39.20;23.63;;;4.00;99.90;;;;;;5052739;28;20028;-66
2022/12/04 12:26:02;;;;;;;39.90;23.33;;;4.00;99.90;;;;;;5052357;28;20029;-66
2022/12/04 12:28:30;;;;;;;40.22;23.55;;;4.00;99.90;;;;;;5051639;28;20044;-65
2022/12/04 12:31:09;;;;;;;37.53;22.90;;;4.10;99.90;;;;;;5052619;28;20060;-66
2022/12/04 12:33:54;;;;;;;45.03;24.55;;;4.10;99.90;;;;;;5052580;28;20022;-65
2022/12/04 12:36:24;;;;;;;38.95;23.77;;;4.10;99.90;;;;;;5051593;28;20563;-66
2022/12/04 12:38:55;;;;;;;37.60;22.90;;;4.10;99.90;;;;;;5052323;28;20024;-66
2022/12/04 12:41:30;;;;;;;42.75;22.27;;;4.10;99.90;;;;;;5051760;28;20048;-65
2022/12/04 12:44:03;;;;;;;38.03;22.10;;;4.20;99.90;;;;;;5052431;28;20036;-65
2022/12/04 12:46:47;;;;;;;38.25;22.27;;;4.10;99.90;;;;;;5051559;28;20024;-66
2022/12/04 12:49:35;;;;;;;33.97;22.45;;;4.10;99.90;;;;;;5051492;28;20112;-65
2022/12/04 12:52:57;;;;;;;36.35;22.33;;;4.10;99.90;;;;;;5052016;28;20082;-67
2022/12/04 12:55:29;;;;;;;;;;;4.10;99.90;;;;;;5010049;28;20034;-65
2022/12/04 12:58:13;;;;;;;43.55;23.42;;;4.10;99.90;;;;;;5050373;28;19905;-66
2022/12/04 13:00:48;;;;;;;38.33;23.33;;;4.10;99.90;;;;;;5052123;28;20033;-66
2022/12/04 13:03:25;;;;;;;42.58;23.33;;;4.10;99.90;;;;;;5051416;28;20036;-67
2022/12/04 13:05:54;;;;;;;41.17;23.08;;;4.00;99.90;;;;;;5050575;28;20033;-66
2022/12/04 13:08:28;;;;;;;39.92;23.30;;;4.00;99.90;;;;;;5051152;28;20450;-66
2022/12/04 13:10:57;;;;;;;41.20;22.42;;;4.00;99.90;;;;;;5051882;28;20040;-67